Weather at North Battleford Airport

Public forecast

Using degrees Celsius for public forecast. Weather courtesy of forecast.io.

Current aviation weather report (METAR) for North Battleford Airport

Retrieved 2021/10/20 00:00 UTC (55 minutes ago):

CYQW 200000Z AUTO 11008KT 9SM CLR 02/M07 A3035 RMK SLP309

Aviation forecast (TAF) for North Battleford Airport

Retrieved 2021-10-20 00:39 UTC (16 minutes ago):

TAF CYQW 192338Z 2000/2012 12010KT P6SM SKC RMK FCST BASED ON AUTO OBS NXT FCST BY 200600Z